Maral — EFGQ — position and weather

sailwx.info

Track history (hours):
 
Tides and Currents Weather Stations Pressure Air Temp Water Temp Dewpoint Dewpoint Depression Visibility Wind Speed Wind Dir Waves Ship Positions

Maral

Last reported at 2014-Jun-26 09:23 UTC. Time now 2014-Jul-31 23:39 UTC.
Position S 29°22' E 033°21'.
Warning: this ship's position is 35 days out of date.

Length 30 m; draft 4 m.

Type: Fishing. MMSI: 224544160.

Date/timePositionNaut miles runAvg speedWind from/ knotsBaromVisibWave heightAir tempDewpointWater temp
2014-Jun-26 09:23S 29°22' E 033°21'15 7.6
2014-Jun-26 07:22S 29°27' E 033°04'6 7.4
2014-Jun-26 06:33S 29°28' E 032°57'7 7.1
2014-Jun-26 05:33S 29°30' E 032°50'7 7.1
2014-Jun-26 04:33S 29°32' E 032°42'7 6.9
2014-Jun-26 03:33S 29°33' E 032°34'7 6.6
2014-Jun-26 02:33S 29°34' E 032°26'6 6.0
2014-Jun-26 01:33S 29°36' E 032°20'5 5.4
2014-Jun-26 00:33S 29°37' E 032°14'5 4.8
2014-Jun-25 23:33S 29°39' E 032°08'5 4.8
2014-Jun-25 22:33S 29°40' E 032°03'5 4.9
2014-Jun-25 21:33S 29°41' E 031°58'5 4.8
2014-Jun-25 20:33S 29°42' E 031°52'5 4.9
2014-Jun-25 19:33S 29°44' E 031°47'5 4.8
2014-Jun-25 18:33S 29°45' E 031°41'5 4.5
2014-Jun-25 17:33S 29°46' E 031°36'4 4.3
2014-Jun-25 16:33S 29°48' E 031°32'6 5.6
2014-Jun-25 15:33S 29°49' E 031°26'7 7.0
2014-Jun-25 14:33S 29°50' E 031°18'8 7.7
2014-Jun-25 13:33S 29°51' E 031°09'7 6.9
2014-Jun-25 12:33S 29°52' E 031°01'1 1.4
2014-Jun-25 11:33S 29°53' E 031°00'0 0.0
2014-Jun-25 10:33S 29°53' E 031°00'0 0.0
2014-Jun-25 09:33S 29°53' E 031°00'0 0.0
2014-Jun-25 08:33S 29°53' E 031°00'0 0.0
2014-Jun-25 07:29S 29°53' E 031°00'0 0.0
2014-Jun-25 06:33S 29°53' E 031°00'0 0.0
2014-Jun-25 05:33S 29°53' E 031°00'0 0.0
2014-Jun-25 04:33S 29°53' E 031°00'0 0.0
2014-Jun-25 03:31S 29°53' E 031°00'0 0.0
2014-Jun-25 02:33S 29°53' E 031°00'0 0.0
2014-Jun-25 01:26S 29°53' E 031°00'0 0.0
2014-Jun-25 00:33S 29°53' E 031°00'0 0.0
2014-Jun-24 22:29S 29°53' E 031°00'0 0.0
2014-Jun-24 19:05S 29°53' E 031°00'0 0.0
2014-Jun-24 17:22S 29°53' E 031°00'0 0.0
2014-Jun-24 16:33S 29°53' E 031°00'0 0.0
2014-Jun-24 15:33S 29°53' E 031°00'0 0.0
2014-Jun-24 14:33S 29°53' E 031°00'0 0.0
2014-Jun-24 13:29S 29°53' E 031°00'0 0.0
2014-Jun-24 12:17S 29°53' E 031°00'0 0.0
2014-Jun-24 11:33S 29°53' E 031°00'0 0.0
2014-Jun-24 10:12S 29°53' E 031°00'0 0.0
2014-Jun-24 09:23S 29°53' E 031°00'0 0.0
2014-Jun-24 06:21S 29°53' E 031°00'0 0.0
2014-Jun-24 05:31S 29°53' E 031°00'0 0.0
2014-Jun-24 04:33S 29°53' E 031°00'0 0.0
2014-Jun-24 03:21S 29°53' E 031°00'0 0.0
2014-Jun-24 02:29S 29°53' E 031°00'0 0.0
2014-Jun-24 01:19S 29°53' E 031°00'0 0.0
2014-Jun-24 00:33S 29°53' E 031°00'0 0.0
2014-Jun-23 23:33S 29°53' E 031°00'0 0.0
2014-Jun-23 22:33S 29°53' E 031°00'0 0.0
2014-Jun-23 21:33S 29°53' E 031°00'0 0.0
2014-Jun-23 20:33S 29°53' E 031°00'0 0.0
2014-Jun-23 19:28S 29°53' E 031°00'0 0.0
2014-Jun-23 18:33S 29°53' E 031°00'0 0.0
2014-Jun-23 17:27S 29°53' E 031°00'0 0.0
2014-Jun-23 16:33S 29°53' E 031°00'0 0.0
2014-Jun-23 15:33S 29°53' E 031°00'0 0.0
2014-Jun-23 14:33S 29°53' E 031°00'0 0.0
2014-Jun-23 12:31S 29°53' E 031°00'0 0.0
2014-Jun-23 11:09S 29°53' E 031°00'0 0.0
2014-Jun-23 10:33S 29°53' E 031°00'0 0.0
2014-Jun-23 09:33S 29°53' E 031°00'0 0.0
2014-Jun-23 08:33S 29°53' E 031°00'0 0.0
2014-Jun-23 07:30S 29°53' E 031°00'0 0.0
2014-Jun-23 06:33S 29°53' E 031°00'0 0.0
2014-Jun-23 05:33S 29°53' E 031°00'0 0.0
2014-Jun-23 04:33S 29°53' E 031°00'0 0.0
2014-Jun-23 03:33S 29°53' E 031°00'0 0.0
2014-Jun-23 02:33S 29°53' E 031°00'0 0.0
2014-Jun-23 01:33S 29°53' E 031°00'0 0.0
2014-Jun-23 00:33S 29°53' E 031°00'0 0.0
2014-Jun-22 23:33S 29°53' E 031°00'0 0.0
2014-Jun-22 22:32S 29°53' E 031°00'0 0.0
2014-Jun-22 21:33S 29°53' E 031°00'0 0.0
2014-Jun-22 20:33S 29°53' E 031°00'0 0.0
2014-Jun-22 19:33S 29°53' E 031°00'  
2014-Jun-18 15:14S 29°53' E 030°60'0 0.0
2014-Jun-18 14:32S 29°53' E 030°60'0 0.0
2014-Jun-18 13:33S 29°53' E 030°60'  
Track history (hours):
 
Tides and Currents Weather Stations Pressure Air Temp Water Temp Dewpoint Dewpoint Depression Visibility Wind Speed Wind Dir Waves Ship Positions

Maral

Last reported at 2014-Jun-26 09:23 UTC. Time now 2014-Jul-31 23:39 UTC.
Position S 29°22' E 033°21'.
Warning: this ship's position is 35 days out of date.

Length 30 m; draft 4 m.

Type: Fishing. MMSI: 224544160.

Date/timePositionNaut miles runAvg speedWind from/ knotsBaromVisibWave heightAir tempDewpointWater temp
2014-Jun-26 09:23S 29°22' E 033°21'15 7.6
2014-Jun-26 07:22S 29°27' E 033°04'6 7.4
2014-Jun-26 06:33S 29°28' E 032°57'7 7.1
2014-Jun-26 05:33S 29°30' E 032°50'7 7.1
2014-Jun-26 04:33S 29°32' E 032°42'7 6.9
2014-Jun-26 03:33S 29°33' E 032°34'7 6.6
2014-Jun-26 02:33S 29°34' E 032°26'6 6.0
2014-Jun-26 01:33S 29°36' E 032°20'5 5.4
2014-Jun-26 00:33S 29°37' E 032°14'5 4.8
2014-Jun-25 23:33S 29°39' E 032°08'5 4.8
2014-Jun-25 22:33S 29°40' E 032°03'5 4.9
2014-Jun-25 21:33S 29°41' E 031°58'5 4.8
2014-Jun-25 20:33S 29°42' E 031°52'5 4.9
2014-Jun-25 19:33S 29°44' E 031°47'5 4.8
2014-Jun-25 18:33S 29°45' E 031°41'5 4.5
2014-Jun-25 17:33S 29°46' E 031°36'4 4.3
2014-Jun-25 16:33S 29°48' E 031°32'6 5.6
2014-Jun-25 15:33S 29°49' E 031°26'7 7.0
2014-Jun-25 14:33S 29°50' E 031°18'8 7.7
2014-Jun-25 13:33S 29°51' E 031°09'7 6.9
2014-Jun-25 12:33S 29°52' E 031°01'1 1.4
2014-Jun-25 11:33S 29°53' E 031°00'0 0.0
2014-Jun-25 10:33S 29°53' E 031°00'0 0.0
2014-Jun-25 09:33S 29°53' E 031°00'0 0.0
2014-Jun-25 08:33S 29°53' E 031°00'0 0.0
2014-Jun-25 07:29S 29°53' E 031°00'0 0.0
2014-Jun-25 06:33S 29°53' E 031°00'0 0.0
2014-Jun-25 05:33S 29°53' E 031°00'0 0.0
2014-Jun-25 04:33S 29°53' E 031°00'0 0.0
2014-Jun-25 03:31S 29°53' E 031°00'0 0.0
2014-Jun-25 02:33S 29°53' E 031°00'0 0.0
2014-Jun-25 01:26S 29°53' E 031°00'0 0.0
2014-Jun-25 00:33S 29°53' E 031°00'0 0.0
2014-Jun-24 22:29S 29°53' E 031°00'0 0.0
2014-Jun-24 19:05S 29°53' E 031°00'0 0.0
2014-Jun-24 17:22S 29°53' E 031°00'0 0.0
2014-Jun-24 16:33S 29°53' E 031°00'0 0.0
2014-Jun-24 15:33S 29°53' E 031°00'0 0.0
2014-Jun-24 14:33S 29°53' E 031°00'0 0.0
2014-Jun-24 13:29S 29°53' E 031°00'0 0.0
2014-Jun-24 12:17S 29°53' E 031°00'0 0.0
2014-Jun-24 11:33S 29°53' E 031°00'0 0.0
2014-Jun-24 10:12S 29°53' E 031°00'0 0.0
2014-Jun-24 09:23S 29°53' E 031°00'0 0.0
2014-Jun-24 06:21S 29°53' E 031°00'0 0.0
2014-Jun-24 05:31S 29°53' E 031°00'0 0.0
2014-Jun-24 04:33S 29°53' E 031°00'0 0.0
2014-Jun-24 03:21S 29°53' E 031°00'0 0.0
2014-Jun-24 02:29S 29°53' E 031°00'0 0.0
2014-Jun-24 01:19S 29°53' E 031°00'0 0.0
2014-Jun-24 00:33S 29°53' E 031°00'0 0.0
2014-Jun-23 23:33S 29°53' E 031°00'0 0.0
2014-Jun-23 22:33S 29°53' E 031°00'0 0.0
2014-Jun-23 21:33S 29°53' E 031°00'0 0.0
2014-Jun-23 20:33S 29°53' E 031°00'0 0.0
2014-Jun-23 19:28S 29°53' E 031°00'0 0.0
2014-Jun-23 18:33S 29°53' E 031°00'0 0.0
2014-Jun-23 17:27S 29°53' E 031°00'0 0.0
2014-Jun-23 16:33S 29°53' E 031°00'0 0.0
2014-Jun-23 15:33S 29°53' E 031°00'0 0.0
2014-Jun-23 14:33S 29°53' E 031°00'0 0.0
2014-Jun-23 12:31S 29°53' E 031°00'0 0.0
2014-Jun-23 11:09S 29°53' E 031°00'0 0.0
2014-Jun-23 10:33S 29°53' E 031°00'0 0.0
2014-Jun-23 09:33S 29°53' E 031°00'0 0.0
2014-Jun-23 08:33S 29°53' E 031°00'0 0.0
2014-Jun-23 07:30S 29°53' E 031°00'0 0.0
2014-Jun-23 06:33S 29°53' E 031°00'0 0.0
2014-Jun-23 05:33S 29°53' E 031°00'0 0.0
2014-Jun-23 04:33S 29°53' E 031°00'0 0.0
2014-Jun-23 03:33S 29°53' E 031°00'0 0.0
2014-Jun-23 02:33S 29°53' E 031°00'0 0.0
2014-Jun-23 01:33S 29°53' E 031°00'0 0.0
2014-Jun-23 00:33S 29°53' E 031°00'0 0.0
2014-Jun-22 23:33S 29°53' E 031°00'0 0.0
2014-Jun-22 22:32S 29°53' E 031°00'0 0.0
2014-Jun-22 21:33S 29°53' E 031°00'0 0.0
2014-Jun-22 20:33S 29°53' E 031°00'0 0.0
2014-Jun-22 19:33S 29°53' E 031°00'  
2014-Jun-18 15:14S 29°53' E 030°60'0 0.0
2014-Jun-18 14:32S 29°53' E 030°60'0 0.0
2014-Jun-18 13:33S 29°53' E 030°60'  

Dump ship's entire track history